sensor_id;sensor_type;location;lat;lon;timestamp;pressure;altitude;pressure_sealevel;temperature;humidity
46614;BME280;32338;50.430;6.806;2023-03-16T00:02:23;65242.94;;;-1.65;100.00
46614;BME280;32338;50.430;6.806;2023-03-16T00:04:49;65242.72;;;-1.68;100.00
46614;BME280;32338;50.430;6.806;2023-03-16T00:07:16;65240.16;;;-1.68;100.00
46614;BME280;32338;50.430;6.806;2023-03-16T00:09:43;65240.16;;;-1.68;100.00
46614;BME280;32338;50.430;6.806;2023-03-16T00:12:12;65240.91;;;-1.65;100.00
46614;BME280;32338;50.430;6.806;2023-03-16T00:14:40;65239.13;;;-1.61;100.00
46614;BME280;32338;50.430;6.806;2023-03-16T00:17:08;65245.94;;;-1.60;100.00
46614;BME280;32338;50.430;6.806;2023-03-16T00:19:36;65249.41;;;-1.61;100.00
46614;BME280;32338;50.430;6.806;2023-03-16T00:22:03;65242.56;;;-1.63;100.00
46614;BME280;32338;50.430;6.806;2023-03-16T00:24:29;65238.69;;;-1.67;100.00
46614;BME280;32338;50.430;6.806;2023-03-16T00:26:56;65242.56;;;-1.63;100.00
46614;BME280;32338;50.430;6.806;2023-03-16T00:29:22;65249.25;;;-1.57;100.00
46614;BME280;32338;50.430;6.806;2023-03-16T00:31:49;65260.41;;;-1.47;100.00
46614;BME280;32338;50.430;6.806;2023-03-16T00:34:16;65269.44;;;-1.43;100.00
46614;BME280;32338;50.430;6.806;2023-03-16T00:36:44;65265.78;;;-1.44;100.00
46614;BME280;32338;50.430;6.806;2023-03-16T00:39:11;65263.22;;;-1.44;100.00
46614;BME280;32338;50.430;6.806;2023-03-16T00:41:39;65265.78;;;-1.44;100.00
46614;BME280;32338;50.430;6.806;2023-03-16T00:44:06;65264.31;;;-1.43;100.00
46614;BME280;32338;50.430;6.806;2023-03-16T00:46:34;65271.91;;;-1.38;100.00
46614;BME280;32338;50.430;6.806;2023-03-16T00:49:06;65263.75;;;-1.43;100.00
46614;BME280;32338;50.430;6.806;2023-03-16T00:51:33;65274.13;;;-1.36;100.00
46614;BME280;32338;50.430;6.806;2023-03-16T00:54:01;65276.50;;;-1.39;100.00
46614;BME280;32338;50.430;6.806;2023-03-16T00:56:29;65277.47;;;-1.33;100.00
46614;BME280;32338;50.430;6.806;2023-03-16T00:58:56;65274.34;;;-1.34;100.00
46614;BME280;32338;50.430;6.806;2023-03-16T01:01:23;65275.81;;;-1.35;100.00
46614;BME280;32338;50.430;6.806;2023-03-16T01:03:49;65270.78;;;-1.39;100.00
46614;BME280;32338;50.430;6.806;2023-03-16T01:06:16;65268.91;;;-1.43;100.00
46614;BME280;32338;50.430;6.806;2023-03-16T01:08:45;65270.56;;;-1.42;100.00
46614;BME280;32338;50.430;6.806;2023-03-16T01:11:14;65271.00;;;-1.37;100.00
46614;BME280;32338;50.430;6.806;2023-03-16T01:13:42;65281.03;;;-1.27;100.00
46614;BME280;32338;50.430;6.806;2023-03-16T01:16:11;65273.22;;;-1.35;100.00
46614;BME280;32338;50.430;6.806;2023-03-16T01:18:38;65280.81;;;-1.30;100.00
46614;BME280;32338;50.430;6.806;2023-03-16T01:21:06;65285.50;;;-1.23;100.00
46614;BME280;32338;50.430;6.806;2023-03-16T01:23:33;65287.50;;;-1.24;100.00
46614;BME280;32338;50.430;6.806;2023-03-16T01:26:00;65278.13;;;-1.25;100.00
46614;BME280;32338;50.430;6.806;2023-03-16T01:28:30;65288.75;;;-1.27;100.00
46614;BME280;32338;50.430;6.806;2023-03-16T01:31:00;65284.16;;;-1.27;100.00
46614;BME280;32338;50.430;6.806;2023-03-16T01:33:28;65281.03;;;-1.27;100.00
46614;BME280;32338;50.430;6.806;2023-03-16T01:35:56;65304.22;;;-1.08;100.00
46614;BME280;32338;50.430;6.806;2023-03-16T01:38:23;65293.09;;;-1.19;100.00
46614;BME280;32338;50.430;6.806;2023-03-16T01:40:51;65284.94;;;-1.24;100.00
46614;BME280;32338;50.430;6.806;2023-03-16T01:43:19;65291.19;;;-1.23;100.00
46614;BME280;32338;50.430;6.806;2023-03-16T01:46:18;65284.72;;;-1.26;100.00
46614;BME280;32338;50.430;6.806;2023-03-16T01:48:54;65282.16;;;-1.26;100.00
46614;BME280;32338;50.430;6.806;2023-03-16T01:51:24;65284.72;;;-1.26;100.00
46614;BME280;32338;50.430;6.806;2023-03-16T01:53:55;65285.81;;;-1.25;100.00
46614;BME280;32338;50.430;6.806;2023-03-16T01:56:25;65280.69;;;-1.25;100.00
46614;BME280;32338;50.430;6.806;2023-03-16T01:58:55;65285.28;;;-1.26;100.00
46614;BME280;32338;50.430;6.806;2023-03-16T02:01:25;65284.38;;;-1.24;100.00
46614;BME280;32338;50.430;6.806;2023-03-16T02:03:56;65301.00;;;-1.16;100.00
46614;BME280;32338;50.430;6.806;2023-03-16T02:06:25;65296.09;;;-1.13;100.00
46614;BME280;32338;50.430;6.806;2023-03-16T02:08:54;65298.88;;;-1.11;100.00
46614;BME280;32338;50.430;6.806;2023-03-16T02:11:22;65299.56;;;-1.15;100.00
46614;BME280;32338;50.430;6.806;2023-03-16T02:13:50;65292.19;;;-1.17;100.00
46614;BME280;32338;50.430;6.806;2023-03-16T02:16:17;65287.72;;;-1.21;100.00
46614;BME280;32338;50.430;6.806;2023-03-16T02:18:49;65307.00;;;-1.06;100.00
46614;BME280;32338;50.430;6.806;2023-03-16T02:21:20;65294.63;;;-1.12;100.00
46614;BME280;32338;50.430;6.806;2023-03-16T02:23:51;65300.31;;;-1.12;100.00
46614;BME280;32338;50.430;6.806;2023-03-16T02:26:23;65296.09;;;-1.13;100.00
46614;BME280;32338;50.430;6.806;2023-03-16T02:29:02;65306.25;;;-1.09;100.00
46614;BME280;32338;50.430;6.806;2023-03-16T02:31:35;65302.56;;;-1.10;100.00
46614;BME280;32338;50.430;6.806;2023-03-16T02:34:02;65299.09;;;-1.08;100.00
46614;BME280;32338;50.430;6.806;2023-03-16T02:36:29;65303.44;;;-1.11;100.00
46614;BME280;32338;50.430;6.806;2023-03-16T02:38:58;65303.44;;;-1.11;100.00
46614;BME280;32338;50.430;6.806;2023-03-16T02:41:24;65306.69;;;-1.04;100.00
46614;BME280;32338;50.430;6.806;2023-03-16T02:43:54;65303.69;;;-1.09;100.00
46614;BME280;32338;50.430;6.806;2023-03-16T02:46:26;65312.25;;;-0.99;100.00
46614;BME280;32338;50.430;6.806;2023-03-16T02:48:58;65315.81;;;-0.93;100.00
46614;BME280;32338;50.430;6.806;2023-03-16T02:51:27;65321.84;;;-0.94;100.00
46614;BME280;32338;50.430;6.806;2023-03-16T02:53:54;65310.59;;;-1.00;100.00
46614;BME280;32338;50.430;6.806;2023-03-16T02:56:21;65305.00;;;-1.05;100.00
46614;BME280;32338;50.430;6.806;2023-03-16T02:58:47;65304.00;;;-1.11;100.00
46614;BME280;32338;50.430;6.806;2023-03-16T03:01:14;65299.78;;;-1.12;100.00
46614;BME280;32338;50.430;6.806;2023-03-16T03:03:41;65289.72;;;-1.22;100.00
46614;BME280;32338;50.430;6.806;2023-03-16T03:06:10;65283.25;;;-1.25;100.00
46614;BME280;32338;50.430;6.806;2023-03-16T03:08:36;65278.25;;;-1.30;100.00
46614;BME280;32338;50.430;6.806;2023-03-16T03:11:03;65280.81;;;-1.30;100.00
46614;BME280;32338;50.430;6.806;2023-03-16T03:13:30;65272.31;;;-1.33;100.00
46614;BME280;32338;50.430;6.806;2023-03-16T03:15:56;65277.13;;;-1.31;100.00
46614;BME280;32338;50.430;6.806;2023-03-16T03:18:24;65278.38;;;-1.35;100.00
46614;BME280;32338;50.430;6.806;2023-03-16T03:20:51;65269.34;;;-1.38;100.00
46614;BME280;32338;50.430;6.806;2023-03-16T03:23:19;65270.56;;;-1.42;100.00
46614;BME280;32338;50.430;6.806;2023-03-16T03:25:46;65262.09;;;-1.45;100.00
46614;BME280;32338;50.430;6.806;2023-03-16T03:28:13;65260.97;;;-1.46;100.00
46614;BME280;32338;50.430;6.806;2023-03-16T03:30:39;65255.84;;;-1.46;100.00
46614;BME280;32338;50.430;6.806;2023-03-16T03:33:07;65265.00;;;-1.47;100.00
46614;BME280;32338;50.430;6.806;2023-03-16T03:35:33;65263.31;;;-1.49;100.00
46614;BME280;32338;50.430;6.806;2023-03-16T03:38:00;65261.31;;;-1.48;100.00
46614;BME280;32338;50.430;6.806;2023-03-16T03:40:28;65256.53;;;-1.50;100.00
46614;BME280;32338;50.430;6.806;2023-03-16T03:42:54;65266.66;;;-1.45;100.00
46614;BME280;32338;50.430;6.806;2023-03-16T03:45:21;65260.75;;;-1.49;100.00
46614;BME280;32338;50.430;6.806;2023-03-16T03:47:48;65262.75;;;-1.49;100.00
46614;BME280;32338;50.430;6.806;2023-03-16T03:50:15;65261.88;;;-1.48;100.00
46614;BME280;32338;50.430;6.806;2023-03-16T03:52:42;65258.41;;;-1.46;100.00
46614;BME280;32338;50.430;6.806;2023-03-16T03:55:09;65269.59;;;-1.48;100.00
46614;BME280;32338;50.430;6.806;2023-03-16T03:57:37;65255.25;;;-1.47;100.00
46614;BME280;32338;50.430;6.806;2023-03-16T04:00:06;65266.53;;;-1.41;100.00
46614;BME280;32338;50.430;6.806;2023-03-16T04:02:35;65263.22;;;-1.44;100.00
46614;BME280;32338;50.430;6.806;2023-03-16T04:05:03;65268.78;;;-1.39;100.00
46614;BME280;32338;50.430;6.806;2023-03-16T04:07:29;65266.00;;;-1.41;100.00
46614;BME280;32338;50.430;6.806;2023-03-16T04:09:56;65264.88;;;-1.42;100.00
46614;BME280;32338;50.430;6.806;2023-03-16T04:12:23;65262.84;;;-1.42;100.00
46614;BME280;32338;50.430;6.806;2023-03-16T04:14:51;65262.63;;;-1.44;100.00
46614;BME280;32338;50.430;6.806;2023-03-16T04:17:17;65263.22;;;-1.44;100.00
46614;BME280;32338;50.430;6.806;2023-03-16T04:19:44;65257.28;;;-1.47;100.00
46614;BME280;32338;50.430;6.806;2023-03-16T04:22:11;65265.78;;;-1.44;100.00
46614;BME280;32338;50.430;6.806;2023-03-16T04:24:38;65256.75;;;-1.48;100.00
46614;BME280;32338;50.430;6.806;2023-03-16T04:27:07;65265.53;;;-1.47;100.00
46614;BME280;32338;50.430;6.806;2023-03-16T04:29:36;65260.19;;;-1.49;100.00
46614;BME280;32338;50.430;6.806;2023-03-16T04:32:04;65254.84;;;-1.52;100.00
46614;BME280;32338;50.430;6.806;2023-03-16T04:34:31;65258.88;;;-1.53;100.00
46614;BME280;32338;50.430;6.806;2023-03-16T04:36:57;65251.16;;;-1.53;100.00
46614;BME280;32338;50.430;6.806;2023-03-16T04:39:24;65250.94;;;-1.55;100.00
46614;BME280;32338;50.430;6.806;2023-03-16T04:41:51;65250.16;;;-1.58;100.00
46614;BME280;32338;50.430;6.806;2023-03-16T04:44:17;65253.16;;;-1.53;100.00
46614;BME280;32338;50.430;6.806;2023-03-16T04:46:44;65244.47;;;-1.59;100.00
46614;BME280;32338;50.430;6.806;2023-03-16T04:49:12;65246.47;;;-1.59;100.00
46614;BME280;32338;50.430;6.806;2023-03-16T04:51:39;65245.38;;;-1.60;100.00
46614;BME280;32338;50.430;6.806;2023-03-16T04:54:07;65246.28;;;-1.62;100.00
46614;BME280;32338;50.430;6.806;2023-03-16T04:56:33;65246.28;;;-1.62;100.00
46614;BME280;32338;50.430;6.806;2023-03-16T04:59:00;65247.94;;;-1.60;100.00
46614;BME280;32338;50.430;6.806;2023-03-16T05:01:27;65250.38;;;-1.56;100.00
46614;BME280;32338;50.430;6.806;2023-03-16T05:03:53;65261.66;;;-1.50;100.00
46614;BME280;32338;50.430;6.806;2023-03-16T05:06:21;65255.94;;;-1.51;100.00
46614;BME280;32338;50.430;6.806;2023-03-16T05:08:48;65253.16;;;-1.53;100.00
46614;BME280;32338;50.430;6.806;2023-03-16T05:11:14;65257.63;;;-1.49;100.00
46614;BME280;32338;50.430;6.806;2023-03-16T05:13:41;65264.09;;;-1.45;100.00
46614;BME280;32338;50.430;6.806;2023-03-16T05:16:08;65273.13;;;-1.42;100.00
46614;BME280;32338;50.430;6.806;2023-03-16T05:18:34;65271.91;;;-1.38;100.00
46614;BME280;32338;50.430;6.806;2023-03-16T05:21:01;65284.38;;;-1.24;100.00
46614;BME280;32338;50.430;6.806;2023-03-16T05:23:29;65293.09;;;-1.19;100.00
46614;BME280;32338;50.430;6.806;2023-03-16T05:25:55;65299.19;;;-1.13;100.00
46614;BME280;32338;50.430;6.806;2023-03-16T05:28:25;65311.59;;;-1.06;100.00
46614;BME280;32338;50.430;6.806;2023-03-16T05:30:52;65311.47;;;-1.02;100.00
46614;BME280;32338;50.430;6.806;2023-03-16T05:33:18;65320.59;;;-0.91;100.00
46614;BME280;32338;50.430;6.806;2023-03-16T05:35:45;65320.59;;;-0.91;100.00
46614;BME280;32338;50.430;6.806;2023-03-16T05:38:12;65334.00;;;-0.78;100.00
46614;BME280;32338;50.430;6.806;2023-03-16T05:40:41;65332.13;;;-0.83;100.00
46614;BME280;32338;50.430;6.806;2023-03-16T05:43:08;65331.75;;;-0.80;100.00
46614;BME280;32338;50.430;6.806;2023-03-16T05:45:34;65337.13;;;-0.78;100.00
46614;BME280;32338;50.430;6.806;2023-03-16T05:48:01;65333.22;;;-0.82;100.00
46614;BME280;32338;50.430;6.806;2023-03-16T05:50:29;65344.94;;;-0.71;100.00
46614;BME280;32338;50.430;6.806;2023-03-16T05:52:56;65342.34;;;-0.71;100.00
46614;BME280;32338;50.430;6.806;2023-03-16T05:55:23;65341.22;;;-0.72;100.00
46614;BME280;32338;50.430;6.806;2023-03-16T05:57:51;65339.78;;;-0.71;100.00
46614;BME280;32338;50.430;6.806;2023-03-16T06:00:19;65345.25;;;-0.73;100.00
46614;BME280;32338;50.430;6.806;2023-03-16T06:02:48;65351.97;;;-0.67;100.00
46614;BME280;32338;50.430;6.806;2023-03-16T06:05:16;65357.19;;;-0.59;100.00
46614;BME280;32338;50.430;6.806;2023-03-16T06:07:43;65355.19;;;-0.59;100.00
46614;BME280;32338;50.430;6.806;2023-03-16T06:10:11;65366.34;;;-0.48;100.00
46614;BME280;32338;50.430;6.806;2023-03-16T06:12:38;65370.91;;;-0.49;100.00
46614;BME280;32338;50.430;6.806;2023-03-16T06:15:08;65367.25;;;-0.50;100.00
46614;BME280;32338;50.430;6.806;2023-03-16T06:17:36;65363.56;;;-0.51;100.00
46614;BME280;32338;50.430;6.806;2023-03-16T06:20:06;65360.75;;;-0.54;100.00
46614;BME280;32338;50.430;6.806;2023-03-16T06:22:34;65361.66;;;-0.55;100.00
46614;BME280;32338;50.430;6.806;2023-03-16T06:25:01;65365.34;;;-0.54;100.00
46614;BME280;32338;50.430;6.806;2023-03-16T06:27:28;65368.34;;;-0.49;100.00
46614;BME280;32338;50.430;6.806;2023-03-16T06:29:55;65369.47;;;-0.48;100.00
46614;BME280;32338;50.430;6.806;2023-03-16T06:32:23;65372.47;;;-0.43;100.00
46614;BME280;32338;50.430;6.806;2023-03-16T06:34:50;65377.50;;;-0.38;100.00
46614;BME280;32338;50.430;6.806;2023-03-16T06:37:16;65380.97;;;-0.40;100.00
46614;BME280;32338;50.430;6.806;2023-03-16T06:39:43;65376.78;;;-0.34;100.00
46614;BME280;32338;50.430;6.806;2023-03-16T06:42:10;65389.75;;;-0.27;100.00
46614;BME280;32338;50.430;6.806;2023-03-16T06:44:37;65387.88;;;-0.31;100.00
46614;BME280;32338;50.430;6.806;2023-03-16T06:47:04;65395.91;;;-0.21;100.00
46614;BME280;32338;50.430;6.806;2023-03-16T06:49:33;65392.88;;;-0.26;100.00
46614;BME280;32338;50.430;6.806;2023-03-16T06:51:59;65404.41;;;-0.18;100.00
46614;BME280;32338;50.430;6.806;2023-03-16T06:54:27;65401.47;;;-0.16;100.00
46614;BME280;32338;50.430;6.806;2023-03-16T06:56:56;65407.41;;;-0.13;100.00
46614;BME280;32338;50.430;6.806;2023-03-16T06:59:23;65418.78;;;0.00;100.00
46614;BME280;32338;50.430;6.806;2023-03-16T07:01:49;65426.59;;;0.07;100.00
46614;BME280;32338;50.430;6.806;2023-03-16T07:04:16;65447.78;;;0.27;100.00
46614;BME280;32338;50.430;6.806;2023-03-16T07:06:44;65454.28;;;0.30;100.00
46614;BME280;32338;50.430;6.806;2023-03-16T07:09:11;65452.41;;;0.26;100.00
46614;BME280;32338;50.430;6.806;2023-03-16T07:11:40;65466.22;;;0.44;100.00
46614;BME280;32338;50.430;6.806;2023-03-16T07:14:07;65467.69;;;0.43;100.00
46614;BME280;32338;50.430;6.806;2023-03-16T07:16:34;65473.25;;;0.48;100.00
46614;BME280;32338;50.430;6.806;2023-03-16T07:19:00;65458.03;;;0.39;100.00
46614;BME280;32338;50.430;6.806;2023-03-16T07:21:27;65475.84;;;0.48;100.00
46614;BME280;32338;50.430;6.806;2023-03-16T07:23:55;65469.91;;;0.45;100.00
46614;BME280;32338;50.430;6.806;2023-03-16T07:26:22;65466.22;;;0.44;100.00
46614;BME280;32338;50.430;6.806;2023-03-16T07:28:49;65476.81;;;0.54;100.00
46614;BME280;32338;50.430;6.806;2023-03-16T07:31:15;65489.66;;;0.66;100.00
46614;BME280;32338;50.430;6.806;2023-03-16T07:33:42;65494.13;;;0.70;100.00
46614;BME280;32338;50.430;6.806;2023-03-16T07:36:09;65500.41;;;0.71;100.00
46614;BME280;32338;50.430;6.806;2023-03-16T07:38:36;65499.16;;;0.74;100.00
46614;BME280;32338;50.430;6.806;2023-03-16T07:41:04;65494.47;;;0.68;100.00
46614;BME280;32338;50.430;6.806;2023-03-16T07:43:31;65496.38;;;0.72;100.00
46614;BME280;32338;50.430;6.806;2023-03-16T07:45:58;65495.03;;;0.68;100.00
46614;BME280;32338;50.430;6.806;2023-03-16T07:48:26;65502.06;;;0.72;100.00
46614;BME280;32338;50.430;6.806;2023-03-16T07:50:53;65511.78;;;0.84;100.00
46614;BME280;32338;50.430;6.806;2023-03-16T07:53:19;65525.19;;;0.96;100.00
46614;BME280;32338;50.430;6.806;2023-03-16T07:55:46;65519.59;;;0.91;100.00
46614;BME280;32338;50.430;6.806;2023-03-16T07:58:15;65527.44;;;0.98;100.00
46614;BME280;32338;50.430;6.806;2023-03-16T08:00:42;65538.38;;;1.06;100.00
46614;BME280;32338;50.430;6.806;2023-03-16T08:03:09;65539.38;;;1.11;100.00
46614;BME280;32338;50.430;6.806;2023-03-16T08:05:36;65548.09;;;1.17;100.00
46614;BME280;32338;50.430;6.806;2023-03-16T08:08:02;65546.63;;;1.18;100.00
46614;BME280;32338;50.430;6.806;2023-03-16T08:10:29;65546.06;;;1.18;100.00
46614;BME280;32338;50.430;6.806;2023-03-16T08:12:57;65560.03;;;1.31;100.00
46614;BME280;32338;50.430;6.806;2023-03-16T08:15:26;65573.91;;;1.36;100.00
46614;BME280;32338;50.430;6.806;2023-03-16T08:17:53;65555.56;;;1.26;100.00
46614;BME280;32338;50.430;6.806;2023-03-16T08:20:19;65543.13;;;1.20;100.00
46614;BME280;32338;50.430;6.806;2023-03-16T08:22:47;65561.50;;;1.29;100.00
46614;BME280;32338;50.430;6.806;2023-03-16T08:25:14;65551.88;;;1.25;100.00
46614;BME280;32338;50.430;6.806;2023-03-16T08:27:44;65559.84;;;1.28;100.00
46614;BME280;32338;50.430;6.806;2023-03-16T08:30:12;65563.16;;;1.31;100.00
46614;BME280;32338;50.430;6.806;2023-03-16T08:32:41;65573.59;;;1.38;100.00
46614;BME280;32338;50.430;6.806;2023-03-16T08:35:10;65585.16;;;1.54;100.00
46614;BME280;32338;50.430;6.806;2023-03-16T08:37:39;65598.72;;;1.61;100.00
46614;BME280;32338;50.430;6.806;2023-03-16T08:40:06;65602.50;;;1.70;100.00
46614;BME280;32338;50.430;6.806;2023-03-16T08:42:35;65620.97;;;1.87;100.00
46614;BME280;32338;50.430;6.806;2023-03-16T08:45:03;65641.56;;;1.99;100.00
46614;BME280;32338;50.430;6.806;2023-03-16T08:47:34;65650.59;;;2.14;100.00
46614;BME280;32338;50.430;6.806;2023-03-16T08:50:03;65669.38;;;2.29;100.00
46614;BME280;32338;50.430;6.806;2023-03-16T08:52:31;65681.91;;;2.43;100.00
46614;BME280;32338;50.430;6.806;2023-03-16T08:54:58;65698.13;;;2.58;100.00
46614;BME280;32338;50.430;6.806;2023-03-16T08:57:24;65720.28;;;2.76;100.00
46614;BME280;32338;50.430;6.806;2023-03-16T08:59:51;65736.50;;;2.91;100.00
46614;BME280;32338;50.430;6.806;2023-03-16T09:02:18;65747.91;;;3.04;100.00
46614;BME280;32338;50.430;6.806;2023-03-16T09:04:44;65764.28;;;3.14;100.00
46614;BME280;32338;50.430;6.806;2023-03-16T09:07:13;65767.31;;;3.19;100.00
46614;BME280;32338;50.430;6.806;2023-03-16T09:09:39;65745.47;;;2.99;100.00
46614;BME280;32338;50.430;6.806;2023-03-16T09:12:06;65765.41;;;3.15;100.00
46614;BME280;32338;50.430;6.806;2023-03-16T09:14:33;65770.66;;;3.22;100.00
46614;BME280;32338;50.430;6.806;2023-03-16T09:17:01;65757.78;;;3.11;100.00
46614;BME280;32338;50.430;6.806;2023-03-16T09:19:29;65758.53;;;3.14;100.00
46614;BME280;32338;50.430;6.806;2023-03-16T09:21:58;65754.63;;;3.10;100.00
46614;BME280;32338;50.430;6.806;2023-03-16T09:24:26;65760.00;;;3.13;100.00
46614;BME280;32338;50.430;6.806;2023-03-16T09:26:53;65777.03;;;3.31;100.00
46614;BME280;32338;50.430;6.806;2023-03-16T09:29:20;65794.16;;;3.44;100.00
46614;BME280;32338;50.430;6.806;2023-03-16T09:31:47;65802.97;;;3.57;100.00
46614;BME280;32338;50.430;6.806;2023-03-16T09:34:14;65804.78;;;3.54;100.00
46614;BME280;32338;50.430;6.806;2023-03-16T09:36:41;65805.72;;;3.52;100.00
46614;BME280;32338;50.430;6.806;2023-03-16T09:39:08;65823.63;;;3.69;100.00
46614;BME280;32338;50.430;6.806;2023-03-16T09:41:43;65827.19;;;3.75;100.00
46614;BME280;32338;50.430;6.806;2023-03-16T09:44:22;65814.94;;;3.70;100.00
46614;BME280;32338;50.430;6.806;2023-03-16T09:46:53;65821.81;;;3.72;100.00
46614;BME280;32338;50.430;6.806;2023-03-16T09:49:23;65838.94;;;3.85;100.00
46614;BME280;32338;50.430;6.806;2023-03-16T09:51:57;65832.09;;;3.84;100.00
46614;BME280;32338;50.430;6.806;2023-03-16T09:54:30;65836.50;;;3.81;100.00
46614;BME280;32338;50.430;6.806;2023-03-16T09:57:11;65840.28;;;3.89;100.00
46614;BME280;32338;50.430;6.806;2023-03-16T09:59:40;65864.72;;;4.09;100.00
46614;BME280;32338;50.430;6.806;2023-03-16T10:02:27;65885.59;;;4.24;100.00
46614;BME280;32338;50.430;6.806;2023-03-16T10:05:02;65886.78;;;4.32;100.00
46614;BME280;32338;50.430;6.806;2023-03-16T10:07:40;65902.66;;;4.49;100.00
46614;BME280;32338;50.430;6.806;2023-03-16T10:10:20;65916.69;;;4.62;100.00
46614;BME280;32338;50.430;6.806;2023-03-16T10:12:52;65932.72;;;4.74;100.00
46614;BME280;32338;50.430;6.806;2023-03-16T10:15:25;65940.38;;;4.79;100.00
46614;BME280;32338;50.430;6.806;2023-03-16T10:17:56;65959.78;;;4.94;100.00
46614;BME280;32338;50.430;6.806;2023-03-16T10:20:27;65989.16;;;5.24;100.00
46614;BME280;32338;50.430;6.806;2023-03-16T10:22:58;66006.75;;;5.42;100.00
46614;BME280;32338;50.430;6.806;2023-03-16T10:25:30;66014.56;;;5.49;100.00
46614;BME280;32338;50.430;6.806;2023-03-16T10:28:02;65991.38;;;5.26;100.00
46614;BME280;32338;50.430;6.806;2023-03-16T10:30:31;66009.91;;;5.43;100.00
46614;BME280;32338;50.430;6.806;2023-03-16T10:33:00;66013.47;;;5.48;100.00
46614;BME280;32338;50.430;6.806;2023-03-16T10:35:39;66007.28;;;5.43;100.00
46614;BME280;32338;50.430;6.806;2023-03-16T10:38:07;66003.94;;;5.40;100.00
46614;BME280;32338;50.430;6.806;2023-03-16T10:40:36;66015.50;;;5.48;100.00
46614;BME280;32338;50.430;6.806;2023-03-16T10:43:06;66019.09;;;5.54;100.00
46614;BME280;32338;50.430;6.806;2023-03-16T10:45:34;66030.28;;;5.64;100.00
46614;BME280;32338;50.430;6.806;2023-03-16T10:48:05;66060.03;;;5.91;100.00
46614;BME280;32338;50.430;6.806;2023-03-16T10:50:32;66098.00;;;6.24;100.00
46614;BME280;32338;50.430;6.806;2023-03-16T10:52:59;66087.53;;;6.16;100.00
46614;BME280;32338;50.430;6.806;2023-03-16T10:55:29;66105.88;;;6.31;100.00
46614;BME280;32338;50.430;6.806;2023-03-16T10:57:59;66111.13;;;6.38;100.00
46614;BME280;32338;50.430;6.806;2023-03-16T11:00:29;66103.28;;;6.31;100.00
46614;BME280;32338;50.430;6.806;2023-03-16T11:02:57;66078.41;;;6.13;100.00
46614;BME280;32338;50.430;6.806;2023-03-16T11:05:27;66094.44;;;6.18;100.00
46614;BME280;32338;50.430;6.806;2023-03-16T11:07:58;66094.84;;;6.23;100.00
46614;BME280;32338;50.430;6.806;2023-03-16T11:10:30;66121.44;;;6.50;100.00
46614;BME280;32338;50.430;6.806;2023-03-16T11:13:10;66151.34;;;6.73;100.00
46614;BME280;32338;50.430;6.806;2023-03-16T11:15:46;66185.25;;;7.06;100.00
46614;BME280;32338;50.430;6.806;2023-03-16T11:18:24;66187.47;;;7.08;100.00
46614;BME280;32338;50.430;6.806;2023-03-16T11:20:57;66172.31;;;6.94;100.00
46614;BME280;32338;50.430;6.806;2023-03-16T11:23:30;66180.38;;;7.04;100.00
46614;BME280;32338;50.430;6.806;2023-03-16T11:26:01;66188.59;;;7.09;100.00
46614;BME280;32338;50.430;6.806;2023-03-16T11:28:35;66188.06;;;7.09;100.00
46614;BME280;32338;50.430;6.806;2023-03-16T11:31:14;66178.31;;;6.97;100.00
46614;BME280;32338;50.430;6.806;2023-03-16T11:33:45;66180.53;;;7.00;100.00
46614;BME280;32338;50.430;6.806;2023-03-16T11:36:27;66184.88;;;7.08;100.00
46614;BME280;32338;50.430;6.806;2023-03-16T11:39:02;66196.28;;;7.14;99.24
46614;BME280;32338;50.430;6.806;2023-03-16T11:41:43;66180.38;;;7.04;97.81
46614;BME280;32338;50.430;6.806;2023-03-16T11:44:16;66176.97;;;6.94;96.36
46614;BME280;32338;50.430;6.806;2023-03-16T11:46:53;66187.47;;;7.08;98.11
46614;BME280;32338;50.430;6.806;2023-03-16T11:49:34;66204.34;;;7.24;100.00
46614;BME280;32338;50.430;6.806;2023-03-16T11:52:11;66192.75;;;7.16;100.00
46614;BME280;32338;50.430;6.806;2023-03-16T11:54:51;66196.31;;;7.21;98.69
46614;BME280;32338;50.430;6.806;2023-03-16T11:57:30;66203.78;;;7.23;95.59
46614;BME280;32338;50.430;6.806;2023-03-16T12:00:11;66207.34;;;7.29;91.86
46614;BME280;32338;50.430;6.806;2023-03-16T12:03:08;66211.47;;;7.35;99.11
46614;BME280;32338;50.430;6.806;2023-03-16T12:05:55;66230.19;;;7.47;95.11
46614;BME280;32338;50.430;6.806;2023-03-16T12:08:35;66240.28;;;7.57;99.07
46614;BME280;32338;50.430;6.806;2023-03-16T12:11:09;66245.34;;;7.61;100.00
46614;BME280;32338;50.430;6.806;2023-03-16T12:13:58;66256.59;;;7.72;96.49
46614;BME280;32338;50.430;6.806;2023-03-16T12:16:29;66244.03;;;7.58;92.28
46614;BME280;32338;50.430;6.806;2023-03-16T12:19:01;66245.19;;;7.66;94.79
46614;BME280;32338;50.430;6.806;2023-03-16T12:21:30;66229.63;;;7.47;89.81
46614;BME280;32338;50.430;6.806;2023-03-16T12:24:01;66215.97;;;7.39;89.62
46614;BME280;32338;50.430;6.806;2023-03-16T12:26:33;66237.13;;;7.56;91.33
46614;BME280;32338;50.430;6.806;2023-03-16T12:29:06;66269.94;;;7.89;98.85
46614;BME280;32338;50.430;6.806;2023-03-16T12:31:44;66303.63;;;8.13;98.40
46614;BME280;32338;50.430;6.806;2023-03-16T12:34:21;66313.19;;;8.21;94.27
46614;BME280;32338;50.430;6.806;2023-03-16T12:37:04;66320.47;;;8.28;90.76
46614;BME280;32338;50.430;6.806;2023-03-16T12:39:47;66309.78;;;8.18;94.01
46614;BME280;32338;50.430;6.806;2023-03-16T12:45:27;66309.25;;;8.25;87.84
46614;BME280;32338;50.430;6.806;2023-03-16T12:48:04;66297.06;;;8.09;88.71
46614;BME280;32338;50.430;6.806;2023-03-16T12:50:46;66301.00;;;8.13;85.67
46614;BME280;32338;50.430;6.806;2023-03-16T12:53:24;66349.56;;;8.59;100.00
46614;BME280;32338;50.430;6.806;2023-03-16T12:55:53;66339.03;;;8.45;91.88
46614;BME280;32338;50.430;6.806;2023-03-16T12:58:21;66328.75;;;8.40;89.41
46614;BME280;32338;50.430;6.806;2023-03-16T13:00:55;66371.66;;;8.75;85.71
46614;BME280;32338;50.430;6.806;2023-03-16T13:03:26;66358.00;;;8.67;86.97
46614;BME280;32338;50.430;6.806;2023-03-16T13:05:58;66367.94;;;8.74;84.41
46614;BME280;32338;50.430;6.806;2023-03-16T13:08:27;66418.00;;;9.20;82.90
46614;BME280;32338;50.430;6.806;2023-03-16T13:11:00;66406.41;;;9.12;84.81